createdAt,value
2018-08-23T00:00:37.042Z,21.40
2018-08-23T00:01:42.567Z,21.20
2018-08-23T00:02:48.079Z,19.90
2018-08-23T00:03:53.596Z,18.90
2018-08-23T00:04:59.115Z,19.70
2018-08-23T00:06:04.634Z,19.60
2018-08-23T00:07:10.154Z,21.30
2018-08-23T00:08:15.673Z,20.90
2018-08-23T00:09:21.192Z,21.10
2018-08-23T00:10:26.712Z,20.90
2018-08-23T00:11:32.233Z,20.20
2018-08-23T00:12:37.748Z,19.80
2018-08-23T00:13:43.333Z,19.10
2018-08-23T00:14:48.785Z,19.50
2018-08-23T00:15:54.302Z,20.40
2018-08-23T00:16:59.815Z,20.40
2018-08-23T00:18:05.347Z,21.30
2018-08-23T00:19:10.857Z,22.30
2018-08-23T00:20:16.375Z,22.80
2018-08-23T00:21:21.899Z,22.10
2018-08-23T00:22:27.407Z,24.50
2018-08-23T00:23:32.926Z,23.20
2018-08-23T00:24:38.447Z,24.00
2018-08-23T00:25:43.961Z,24.20
2018-08-23T00:26:49.483Z,24.30
2018-08-23T00:27:54.996Z,24.20
2018-08-23T00:29:00.519Z,21.90
2018-08-23T00:30:06.042Z,20.90
2018-08-23T00:31:11.550Z,21.10
2018-08-23T00:32:17.079Z,21.40
2018-08-23T00:33:22.599Z,22.00
2018-08-23T00:34:28.110Z,21.60
2018-08-23T00:35:33.629Z,21.30
2018-08-23T00:36:39.146Z,21.20
2018-08-23T00:37:44.670Z,22.60
2018-08-23T00:38:50.181Z,20.70
2018-08-23T00:39:55.701Z,20.70
2018-08-23T00:41:01.218Z,21.90
2018-08-23T00:42:06.737Z,23.10
2018-08-23T00:43:12.252Z,21.80
2018-08-23T00:44:17.769Z,22.40
2018-08-23T00:45:23.288Z,27.10
2018-08-23T00:46:28.811Z,24.10
2018-08-23T00:47:34.327Z,24.00
2018-08-23T00:48:39.848Z,26.50
2018-08-23T00:49:45.362Z,26.40
2018-08-23T00:50:50.876Z,24.60
2018-08-23T00:51:56.400Z,23.00
2018-08-23T00:53:01.916Z,21.20
2018-08-23T00:54:07.445Z,20.30
2018-08-23T00:55:12.954Z,20.20
2018-08-23T00:56:18.476Z,20.20
2018-08-23T00:57:23.989Z,20.50
2018-08-23T00:58:29.513Z,21.10
2018-08-23T00:59:35.025Z,21.30
2018-08-23T01:00:40.553Z,20.50
2018-08-23T01:01:46.061Z,21.40
2018-08-23T01:02:51.578Z,22.30
2018-08-23T01:03:57.097Z,23.30
2018-08-23T01:05:02.620Z,24.50
2018-08-23T01:06:08.137Z,26.20
2018-08-23T01:07:13.657Z,38.80
2018-08-23T01:08:19.174Z,32.70
2018-08-23T01:09:24.686Z,27.20
2018-08-23T01:10:30.202Z,28.20
2018-08-23T01:11:35.725Z,26.80
2018-08-23T01:12:41.244Z,27.00
2018-08-23T01:13:46.757Z,25.10
2018-08-23T01:14:52.282Z,25.70
2018-08-23T01:15:57.792Z,24.90
2018-08-23T01:17:03.386Z,24.80
2018-08-23T01:18:08.836Z,24.40
2018-08-23T01:19:14.348Z,23.40
2018-08-23T01:20:19.866Z,24.20
2018-08-23T01:21:25.382Z,24.10
2018-08-23T01:22:30.900Z,23.70
2018-08-23T01:23:36.420Z,25.80
2018-08-23T01:24:41.939Z,27.40
2018-08-23T01:25:47.458Z,29.50
2018-08-23T01:26:52.972Z,28.20
2018-08-23T01:27:58.489Z,33.70
2018-08-23T01:29:04.011Z,32.70
2018-08-23T01:30:09.526Z,30.70
2018-08-23T01:31:15.043Z,30.30
2018-08-23T01:32:20.561Z,29.80
2018-08-23T01:33:26.077Z,31.30
2018-08-23T01:34:31.600Z,31.80
2018-08-23T01:35:37.115Z,32.00
2018-08-23T01:36:42.641Z,31.30
2018-08-23T01:37:48.153Z,31.20
2018-08-23T01:38:53.668Z,32.70
2018-08-23T01:39:59.193Z,31.30
2018-08-23T01:41:04.705Z,31.90
2018-08-23T01:42:10.219Z,30.10
2018-08-23T01:43:15.741Z,44.50
2018-08-23T01:44:21.273Z,30.10
2018-08-23T01:45:26.776Z,29.00
2018-08-23T01:46:32.293Z,30.50
2018-08-23T01:47:37.811Z,29.70
2018-08-23T01:48:43.332Z,30.40
2018-08-23T01:49:48.845Z,30.30
2018-08-23T01:50:54.374Z,29.50
2018-08-23T01:51:59.881Z,29.90
2018-08-23T01:53:05.402Z,28.70
2018-08-23T01:54:10.922Z,29.50
2018-08-23T01:55:16.435Z,31.10
2018-08-23T01:56:21.953Z,32.90
2018-08-23T01:57:27.476Z,32.40
2018-08-23T01:58:32.986Z,33.10
2018-08-23T01:59:38.509Z,30.30
2018-08-23T02:00:44.023Z,28.10
2018-08-23T02:01:49.545Z,27.50
2018-08-23T02:02:55.061Z,27.70
2018-08-23T02:04:00.580Z,29.60
2018-08-23T02:05:06.095Z,29.60
2018-08-23T02:06:11.619Z,29.60
2018-08-23T02:07:17.135Z,29.20
2018-08-23T02:08:22.657Z,30.40
2018-08-23T02:09:28.170Z,28.40
2018-08-23T02:10:33.684Z,29.20
2018-08-23T02:11:39.204Z,33.20
2018-08-23T02:12:44.722Z,30.90
2018-08-23T02:13:50.238Z,33.30
2018-08-23T02:14:55.755Z,21.00
2018-08-23T02:16:01.276Z,29.90
2018-08-23T02:17:06.789Z,29.60
2018-08-23T02:18:12.316Z,29.90
2018-08-23T02:19:17.830Z,30.70
2018-08-23T02:20:23.346Z,31.30
2018-08-23T02:21:28.864Z,31.80
2018-08-23T02:22:34.381Z,32.30
2018-08-23T02:23:39.897Z,32.90
2018-08-23T02:24:45.413Z,32.50
2018-08-23T02:25:50.933Z,34.30
2018-08-23T02:26:56.458Z,34.50
2018-08-23T02:28:01.963Z,35.50
2018-08-23T02:29:07.487Z,35.70
2018-08-23T02:30:13.001Z,34.50
2018-08-23T02:31:18.520Z,44.90
2018-08-23T02:32:24.087Z,32.00
2018-08-23T02:33:29.555Z,30.20
2018-08-23T02:34:35.070Z,30.20
2018-08-23T02:35:40.590Z,31.20
2018-08-23T02:36:46.109Z,31.80
2018-08-23T02:37:51.632Z,32.10
2018-08-23T02:38:57.145Z,39.30
2018-08-23T02:40:02.663Z,33.50
2018-08-23T02:41:08.179Z,43.00
2018-08-23T02:42:13.702Z,31.80
2018-08-23T02:43:19.213Z,35.70
2018-08-23T02:44:24.734Z,32.70
2018-08-23T02:45:30.248Z,32.20
2018-08-23T02:46:35.767Z,35.30
2018-08-23T02:47:41.282Z,33.00
2018-08-23T02:48:46.805Z,33.60
2018-08-23T02:49:52.319Z,35.00
2018-08-23T02:50:57.835Z,35.00
2018-08-23T02:52:03.351Z,35.50
2018-08-23T02:53:08.876Z,35.60
2018-08-23T02:54:14.419Z,34.80
2018-08-23T02:55:19.903Z,34.20
2018-08-23T02:56:25.420Z,35.10
2018-08-23T02:57:30.938Z,35.30
2018-08-23T02:58:36.454Z,35.00
2018-08-23T02:59:41.975Z,34.90
2018-08-23T03:00:47.490Z,35.00
2018-08-23T03:01:53.007Z,33.30
2018-08-23T03:02:58.521Z,34.20
2018-08-23T03:04:04.045Z,32.60
2018-08-23T03:05:09.556Z,34.60
2018-08-23T03:06:15.075Z,33.70
2018-08-23T03:07:20.605Z,33.50
2018-08-23T03:08:26.105Z,34.30
2018-08-23T03:09:31.629Z,33.50
2018-08-23T03:10:37.142Z,33.50
2018-08-23T03:11:42.662Z,35.80
2018-08-23T03:12:48.179Z,34.10
2018-08-23T03:13:53.700Z,33.80
2018-08-23T03:14:59.212Z,34.40
2018-08-23T03:16:04.729Z,34.80
2018-08-23T03:17:10.251Z,34.20
2018-08-23T03:18:15.769Z,34.60
2018-08-23T03:19:21.279Z,34.30
2018-08-23T03:20:26.795Z,34.00
2018-08-23T03:21:32.315Z,34.30
2018-08-23T03:22:37.827Z,34.90
2018-08-23T03:23:43.347Z,35.70
2018-08-23T03:24:48.865Z,36.10
2018-08-23T03:25:54.379Z,36.50
2018-08-23T03:26:59.900Z,36.10
2018-08-23T03:28:05.421Z,35.00
2018-08-23T03:29:10.932Z,34.40
2018-08-23T03:30:16.454Z,49.10
2018-08-23T03:31:21.968Z,36.60
2018-08-23T03:32:27.488Z,35.90
2018-08-23T03:33:33.001Z,37.50
2018-08-23T03:34:38.517Z,37.90
2018-08-23T03:35:44.033Z,40.90
2018-08-23T03:36:49.551Z,39.40
2018-08-23T03:37:55.068Z,39.80
2018-08-23T03:39:00.584Z,40.20
2018-08-23T03:40:06.100Z,39.80
2018-08-23T03:41:11.621Z,35.60
2018-08-23T03:42:17.137Z,37.50
2018-08-23T03:43:22.653Z,36.50
2018-08-23T03:44:28.185Z,38.60
2018-08-23T03:45:33.686Z,38.60
2018-08-23T03:46:39.207Z,36.80
2018-08-23T03:47:44.727Z,38.40
2018-08-23T03:48:50.239Z,37.30
2018-08-23T03:49:55.757Z,39.70
2018-08-23T03:51:01.270Z,40.20
2018-08-23T03:52:06.785Z,39.60
2018-08-23T03:53:12.308Z,40.70
2018-08-23T03:54:17.813Z,39.20
2018-08-23T03:55:23.341Z,39.70
2018-08-23T03:56:28.853Z,35.90
2018-08-23T03:57:34.371Z,37.60
2018-08-23T03:58:39.888Z,36.90
2018-08-23T03:59:45.407Z,37.60
2018-08-23T04:00:50.917Z,38.30
2018-08-23T04:01:56.435Z,37.60
2018-08-23T04:03:01.958Z,38.20
2018-08-23T04:04:07.477Z,37.00
2018-08-23T04:05:12.993Z,39.80
2018-08-23T04:06:18.503Z,39.90
2018-08-23T04:07:24.021Z,39.80
2018-08-23T04:08:29.539Z,40.80
2018-08-23T04:09:35.053Z,40.40
2018-08-23T04:10:40.573Z,44.60
2018-08-23T04:11:46.084Z,41.70
2018-08-23T04:12:51.603Z,40.70
2018-08-23T04:13:57.120Z,36.70
2018-08-23T04:15:02.636Z,36.70
2018-08-23T04:16:08.153Z,36.70
2018-08-23T04:17:13.666Z,36.40
2018-08-23T04:18:19.188Z,36.40
2018-08-23T04:19:24.705Z,35.60
2018-08-23T04:20:30.226Z,36.40
2018-08-23T04:21:35.741Z,35.70
2018-08-23T04:22:41.267Z,37.10
2018-08-23T04:23:46.771Z,37.80
2018-08-23T04:24:52.285Z,38.50
2018-08-23T04:25:57.801Z,36.90
2018-08-23T04:27:03.317Z,37.50
2018-08-23T04:28:08.835Z,37.50
2018-08-23T04:29:14.353Z,36.90
2018-08-23T04:30:19.868Z,37.00
2018-08-23T04:31:25.382Z,37.50
2018-08-23T04:32:30.903Z,37.10
2018-08-23T04:33:36.434Z,37.40
2018-08-23T04:34:41.936Z,37.40
2018-08-23T04:35:47.452Z,38.50
2018-08-23T04:36:52.970Z,40.30
2018-08-23T04:37:58.487Z,40.20
2018-08-23T04:39:04.001Z,39.30
2018-08-23T04:40:09.513Z,38.70
2018-08-23T04:41:15.034Z,39.80
2018-08-23T04:42:20.547Z,41.40
2018-08-23T04:43:26.065Z,40.90
2018-08-23T04:44:31.588Z,41.00
2018-08-23T04:45:37.099Z,43.10
2018-08-23T04:46:42.618Z,37.80
2018-08-23T04:47:48.132Z,36.60
2018-08-23T04:48:53.652Z,36.40
2018-08-23T04:49:59.165Z,37.00
2018-08-23T04:51:04.685Z,36.10
2018-08-23T04:52:10.199Z,36.70
2018-08-23T04:53:15.713Z,37.00
2018-08-23T04:54:21.227Z,37.80
2018-08-23T04:55:26.754Z,38.50
2018-08-23T04:56:32.264Z,39.00
2018-08-23T04:57:37.781Z,40.80
2018-08-23T04:58:43.293Z,42.70
2018-08-23T04:59:48.808Z,41.50
2018-08-23T05:00:54.325Z,41.30
2018-08-23T05:01:59.845Z,39.90
2018-08-23T05:03:05.360Z,40.80
2018-08-23T05:04:10.893Z,40.70
2018-08-23T05:05:16.396Z,40.50
2018-08-23T05:06:21.909Z,40.60
2018-08-23T05:07:27.428Z,41.40
2018-08-23T05:08:32.945Z,43.50
2018-08-23T05:09:38.458Z,42.80
2018-08-23T05:10:43.978Z,42.10
2018-08-23T05:11:49.495Z,42.00
2018-08-23T05:12:55.008Z,42.70
2018-08-23T05:14:00.591Z,43.70
2018-08-23T05:15:06.042Z,43.00
2018-08-23T05:16:11.564Z,42.40
2018-08-23T05:17:17.081Z,43.00
2018-08-23T05:18:22.590Z,45.50
2018-08-23T05:19:28.105Z,45.50
2018-08-23T05:20:33.629Z,44.20
2018-08-23T05:21:39.139Z,45.80
2018-08-23T05:22:44.661Z,45.10
2018-08-23T05:23:50.171Z,46.50
2018-08-23T05:24:55.691Z,45.80
2018-08-23T05:26:01.208Z,45.20
2018-08-23T05:27:06.730Z,45.40
2018-08-23T05:28:12.235Z,46.20
2018-08-23T05:29:17.753Z,47.00
2018-08-23T05:30:23.285Z,46.40
2018-08-23T05:31:28.789Z,45.50
2018-08-23T05:32:34.307Z,46.10
2018-08-23T05:33:39.817Z,45.70
2018-08-23T05:34:45.346Z,44.90
2018-08-23T05:35:50.851Z,45.80
2018-08-23T05:36:56.377Z,45.50
2018-08-23T05:38:01.897Z,45.90
2018-08-23T05:39:07.409Z,45.80
2018-08-23T05:40:12.919Z,46.60
2018-08-23T05:41:18.439Z,45.40
2018-08-23T05:42:23.953Z,43.50
2018-08-23T05:43:29.463Z,43.80
2018-08-23T05:44:34.990Z,45.00
2018-08-23T05:45:40.505Z,44.70
2018-08-23T05:46:46.018Z,44.00
2018-08-23T05:47:51.536Z,44.90
2018-08-23T05:48:57.052Z,44.90
2018-08-23T05:50:02.566Z,44.90
2018-08-23T05:51:08.085Z,44.40
2018-08-23T05:52:13.596Z,43.50
2018-08-23T05:53:19.115Z,44.50
2018-08-23T05:54:24.640Z,44.20
2018-08-23T05:55:30.151Z,43.80
2018-08-23T05:56:35.669Z,45.80
2018-08-23T05:57:41.183Z,46.90
2018-08-23T05:58:46.699Z,46.40
2018-08-23T05:59:52.217Z,46.80
2018-08-23T06:00:57.731Z,48.90
2018-08-23T06:02:03.249Z,47.70
2018-08-23T06:03:08.763Z,47.50
2018-08-23T06:04:14.282Z,48.40
2018-08-23T06:05:19.795Z,48.60
2018-08-23T06:06:25.318Z,46.90
2018-08-23T06:07:30.835Z,46.90
2018-08-23T06:08:36.345Z,48.10
2018-08-23T06:09:41.863Z,47.10
2018-08-23T06:10:47.384Z,48.20
2018-08-23T06:11:52.898Z,48.50
2018-08-23T06:12:58.414Z,47.80
2018-08-23T06:14:03.976Z,47.90
2018-08-23T06:15:09.455Z,46.90
2018-08-23T06:16:14.962Z,47.90
2018-08-23T06:17:20.487Z,46.90
2018-08-23T06:18:25.994Z,47.10
2018-08-23T06:19:31.517Z,48.60
2018-08-23T06:20:37.036Z,48.70
2018-08-23T06:21:42.550Z,47.40
2018-08-23T06:22:48.077Z,47.00
2018-08-23T06:23:53.582Z,48.40
2018-08-23T06:24:59.100Z,49.60
2018-08-23T06:26:04.613Z,48.40
2018-08-23T06:27:10.135Z,49.10
2018-08-23T06:28:15.651Z,48.60
2018-08-23T06:29:21.162Z,47.40
2018-08-23T06:30:26.684Z,48.50
2018-08-23T06:31:32.209Z,49.20
2018-08-23T06:32:37.716Z,48.90
2018-08-23T06:33:43.303Z,49.40
2018-08-23T06:34:48.747Z,51.60
2018-08-23T06:35:54.265Z,51.60
2018-08-23T06:36:59.789Z,49.80
2018-08-23T06:38:05.306Z,52.00
2018-08-23T06:39:10.817Z,50.50
2018-08-23T06:40:16.343Z,50.90
2018-08-23T06:41:21.857Z,50.10
2018-08-23T06:42:27.367Z,51.10
2018-08-23T06:43:32.886Z,51.10
2018-08-23T06:44:38.411Z,51.30
2018-08-23T06:45:43.921Z,50.10
2018-08-23T06:46:49.450Z,50.20
2018-08-23T06:47:54.954Z,51.40
2018-08-23T06:49:00.545Z,50.60
2018-08-23T06:50:05.985Z,50.60
2018-08-23T06:51:11.534Z,50.90
2018-08-23T06:52:17.031Z,50.10
2018-08-23T06:53:22.540Z,49.10
2018-08-23T06:54:28.057Z,48.50
2018-08-23T06:55:33.578Z,49.60
2018-08-23T06:56:39.095Z,51.00
2018-08-23T06:57:44.612Z,50.00
2018-08-23T06:58:50.175Z,49.90
2018-08-23T06:59:55.644Z,50.60
2018-08-23T07:01:01.163Z,51.00
2018-08-23T07:02:06.685Z,49.70
2018-08-23T07:03:12.198Z,48.20
2018-08-23T07:04:17.713Z,49.30
2018-08-23T07:05:23.282Z,49.50
2018-08-23T07:06:28.745Z,50.00
2018-08-23T07:07:34.268Z,47.50
2018-08-23T07:08:39.791Z,46.20
2018-08-23T07:09:45.299Z,50.30
2018-08-23T07:10:50.820Z,51.00
2018-08-23T07:11:56.405Z,48.80
2018-08-23T07:13:01.854Z,49.00
2018-08-23T07:14:07.375Z,47.40
2018-08-23T07:15:12.887Z,49.30
2018-08-23T07:16:18.407Z,50.50
2018-08-23T07:17:23.935Z,49.40
2018-08-23T07:18:29.450Z,51.20
2018-08-23T07:19:34.976Z,50.60
2018-08-23T07:20:40.483Z,49.80
2018-08-23T07:21:45.995Z,50.40
2018-08-23T07:22:51.515Z,49.60
2018-08-23T07:23:57.031Z,51.10
2018-08-23T07:25:02.546Z,48.50
2018-08-23T07:26:08.073Z,50.60
2018-08-23T07:27:13.584Z,48.50
2018-08-23T07:28:19.101Z,48.60
2018-08-23T07:29:24.624Z,49.10
2018-08-23T07:30:30.139Z,48.50
2018-08-23T07:31:35.702Z,49.70
2018-08-23T07:32:41.186Z,50.70
2018-08-23T07:33:46.697Z,50.30
2018-08-23T07:34:52.216Z,51.20
2018-08-23T07:35:57.754Z,50.00
2018-08-23T07:37:03.244Z,49.20
2018-08-23T07:38:08.770Z,48.30
2018-08-23T07:39:14.340Z,49.40
2018-08-23T07:40:19.812Z,48.10
2018-08-23T07:41:25.335Z,48.50
2018-08-23T07:42:30.842Z,48.10
2018-08-23T07:43:36.356Z,46.10
2018-08-23T07:44:41.869Z,46.00
2018-08-23T07:45:47.394Z,45.40
2018-08-23T07:46:52.906Z,44.20
2018-08-23T07:47:58.435Z,44.80
2018-08-23T07:49:03.987Z,44.00
2018-08-23T07:50:09.505Z,43.80
2018-08-23T07:51:14.999Z,43.80
2018-08-23T07:52:20.498Z,43.10
2018-08-23T07:53:26.136Z,42.20
2018-08-23T07:54:31.538Z,41.10
2018-08-23T07:55:37.054Z,42.50
2018-08-23T07:56:42.577Z,41.60
2018-08-23T07:57:48.092Z,42.20
2018-08-23T07:58:53.612Z,42.30
2018-08-23T07:59:59.129Z,41.80
2018-08-23T08:01:04.644Z,42.60
2018-08-23T08:02:10.165Z,41.80
2018-08-23T08:03:15.679Z,42.10
2018-08-23T08:04:21.212Z,40.10
2018-08-23T08:05:26.717Z,39.60
2018-08-23T08:06:32.240Z,39.30
2018-08-23T08:07:37.761Z,39.90
2018-08-23T08:08:43.282Z,40.40
2018-08-23T08:09:48.805Z,40.80
2018-08-23T08:10:54.324Z,39.70
2018-08-23T08:11:59.830Z,37.20
2018-08-23T08:13:05.350Z,38.00
2018-08-23T08:14:10.879Z,37.30
2018-08-23T08:15:16.498Z,35.00
2018-08-23T08:16:21.905Z,31.30
2018-08-23T08:17:27.425Z,34.60
2018-08-23T08:18:32.947Z,35.70
2018-08-23T08:19:38.464Z,30.80
2018-08-23T08:20:44.015Z,29.90
2018-08-23T08:21:49.514Z,29.90
2018-08-23T08:22:55.034Z,32.20
2018-08-23T08:24:00.548Z,29.60
2018-08-23T08:25:06.069Z,31.00
2018-08-23T08:26:11.576Z,28.20
2018-08-23T08:27:17.107Z,26.10
2018-08-23T08:28:22.612Z,27.90
2018-08-23T08:29:28.133Z,27.80
2018-08-23T08:30:33.655Z,26.40
2018-08-23T08:31:39.168Z,26.40
2018-08-23T08:32:44.695Z,25.90
2018-08-23T08:33:50.205Z,26.00
2018-08-23T08:34:55.729Z,24.70
2018-08-23T08:36:01.244Z,23.60
2018-08-23T08:37:06.760Z,23.80
2018-08-23T08:38:12.289Z,24.10
2018-08-23T08:39:17.802Z,23.70
2018-08-23T08:40:23.326Z,24.50
2018-08-23T08:41:28.844Z,24.30
2018-08-23T08:42:34.361Z,21.60
2018-08-23T08:43:39.872Z,21.80
2018-08-23T08:44:45.399Z,23.00
2018-08-23T08:45:50.914Z,20.60
2018-08-23T08:46:56.435Z,20.00
2018-08-23T08:48:01.951Z,20.80
2018-08-23T08:49:07.472Z,19.50
2018-08-23T08:50:12.990Z,20.20
2018-08-23T08:51:18.509Z,20.80
2018-08-23T08:52:24.033Z,21.10
2018-08-23T08:53:29.546Z,21.40
2018-08-23T08:54:35.063Z,23.60
2018-08-23T08:55:40.585Z,23.20
2018-08-23T08:56:46.153Z,20.80
2018-08-23T08:57:51.655Z,20.40
2018-08-23T08:58:57.145Z,18.80
2018-08-23T09:00:02.670Z,18.80
2018-08-23T09:01:08.179Z,18.70
2018-08-23T09:02:13.696Z,18.20
2018-08-23T09:03:19.226Z,20.80
2018-08-23T09:04:24.738Z,19.70
2018-08-23T09:05:30.259Z,19.40
2018-08-23T09:06:35.810Z,21.50
2018-08-23T09:07:41.303Z,19.50
2018-08-23T09:08:46.814Z,19.10
2018-08-23T09:09:52.434Z,18.50
2018-08-23T09:10:57.856Z,17.00
2018-08-23T09:12:03.372Z,18.00
2018-08-23T09:13:08.903Z,18.80
2018-08-23T09:14:14.417Z,18.70
2018-08-23T09:15:19.931Z,18.50
2018-08-23T09:16:25.451Z,17.60
2018-08-23T09:17:30.976Z,18.20
2018-08-23T09:18:36.499Z,17.10
2018-08-23T09:19:42.011Z,16.00
2018-08-23T09:20:47.546Z,16.20
2018-08-23T09:21:53.051Z,15.20
2018-08-23T09:22:58.571Z,16.20
2018-08-23T09:24:04.090Z,15.00
2018-08-23T09:25:09.635Z,14.80
2018-08-23T09:26:15.131Z,14.10
2018-08-23T09:27:20.738Z,13.00
2018-08-23T09:28:26.170Z,12.80
2018-08-23T09:29:31.689Z,12.10
2018-08-23T09:30:37.204Z,12.50
2018-08-23T09:31:42.727Z,12.00
2018-08-23T09:32:48.248Z,12.00
2018-08-23T09:33:53.765Z,12.10
2018-08-23T09:34:59.337Z,11.90
2018-08-23T09:36:04.805Z,12.90
2018-08-23T09:37:10.328Z,12.10
2018-08-23T09:38:15.850Z,11.30
2018-08-23T09:39:21.367Z,12.20
2018-08-23T09:40:26.888Z,12.10
2018-08-23T09:41:32.407Z,10.80
2018-08-23T09:42:37.922Z,11.00
2018-08-23T09:43:43.445Z,12.70
2018-08-23T09:44:48.970Z,12.90
2018-08-23T09:45:54.483Z,13.00
2018-08-23T09:47:00.006Z,13.00
2018-08-23T09:48:05.525Z,13.30
2018-08-23T09:49:11.048Z,12.80
2018-08-23T09:50:16.682Z,12.70
2018-08-23T09:51:22.087Z,12.40
2018-08-23T09:52:27.660Z,13.40
2018-08-23T09:53:33.130Z,13.00
2018-08-23T09:54:38.644Z,13.10
2018-08-23T09:55:44.171Z,12.10
2018-08-23T09:56:49.690Z,12.60
2018-08-23T09:57:55.217Z,12.70
2018-08-23T09:59:00.726Z,12.10
2018-08-23T10:00:06.249Z,11.70
2018-08-23T10:01:11.771Z,11.00
2018-08-23T10:02:17.286Z,10.70
2018-08-23T10:03:22.808Z,10.30
2018-08-23T10:04:28.440Z,10.30
2018-08-23T10:05:33.853Z,11.60
2018-08-23T10:06:39.372Z,12.20
2018-08-23T10:07:44.890Z,10.50
2018-08-23T10:08:50.419Z,10.20
2018-08-23T10:09:55.931Z,9.00
2018-08-23T10:11:01.458Z,9.20
2018-08-23T10:12:06.971Z,10.00
2018-08-23T10:13:12.492Z,9.10
2018-08-23T10:14:18.019Z,10.60
2018-08-23T10:15:23.536Z,9.00
2018-08-23T10:16:29.061Z,9.50
2018-08-23T10:17:34.573Z,9.90
2018-08-23T10:18:40.104Z,8.80
2018-08-23T10:19:45.618Z,9.10
2018-08-23T10:20:51.147Z,9.30
2018-08-23T10:21:56.655Z,9.90
2018-08-23T10:23:02.177Z,9.30
2018-08-23T10:24:07.701Z,9.50
2018-08-23T10:25:13.216Z,9.90
2018-08-23T10:26:18.751Z,9.40
2018-08-23T10:27:24.263Z,9.20
2018-08-23T10:28:29.783Z,9.60
2018-08-23T10:29:35.307Z,8.60
2018-08-23T10:30:40.830Z,9.00
2018-08-23T10:31:46.353Z,7.60
2018-08-23T10:32:51.878Z,8.60
2018-08-23T10:33:57.389Z,8.40
2018-08-23T10:35:02.906Z,11.40
2018-08-23T10:36:08.426Z,12.30
2018-08-23T10:37:13.951Z,11.50
2018-08-23T10:38:19.552Z,12.90
2018-08-23T10:39:24.992Z,12.60
2018-08-23T10:40:30.518Z,12.40
2018-08-23T10:41:36.041Z,10.40
2018-08-23T10:42:41.555Z,10.20
2018-08-23T10:43:47.078Z,10.20
2018-08-23T10:44:52.606Z,10.10
2018-08-23T10:45:58.118Z,13.10
2018-08-23T10:47:03.647Z,12.10
2018-08-23T10:48:09.160Z,14.20
2018-08-23T10:49:14.690Z,14.00
2018-08-23T10:50:20.207Z,13.30
2018-08-23T10:51:25.727Z,13.20
2018-08-23T10:52:31.248Z,11.70
2018-08-23T10:53:36.767Z,12.50
2018-08-23T10:54:42.288Z,13.10
2018-08-23T10:55:47.810Z,14.50
2018-08-23T10:56:53.333Z,13.30
2018-08-23T10:57:58.861Z,14.20
2018-08-23T10:59:04.451Z,13.60
2018-08-23T11:00:09.896Z,14.20
2018-08-23T11:01:15.419Z,12.40
2018-08-23T11:02:20.937Z,12.10
2018-08-23T11:03:26.462Z,11.80
2018-08-23T11:04:31.983Z,13.10
2018-08-23T11:05:37.511Z,13.10
2018-08-23T11:06:43.024Z,11.60
2018-08-23T11:07:48.543Z,11.60
2018-08-23T11:08:54.073Z,11.50
2018-08-23T11:09:59.587Z,11.40
2018-08-23T11:11:05.140Z,11.80
2018-08-23T11:12:10.636Z,11.00
2018-08-23T11:13:16.152Z,12.10
2018-08-23T11:14:21.689Z,12.40
2018-08-23T11:15:27.190Z,12.40
2018-08-23T11:16:32.756Z,12.30
2018-08-23T11:17:38.243Z,12.60
2018-08-23T11:18:43.761Z,11.70
2018-08-23T11:19:49.288Z,11.10
2018-08-23T11:20:54.812Z,10.80
2018-08-23T11:22:00.330Z,10.30
2018-08-23T11:23:05.908Z,11.80
2018-08-23T11:24:11.380Z,11.70
2018-08-23T11:25:16.893Z,10.00
2018-08-23T11:26:22.417Z,9.70
2018-08-23T11:27:27.941Z,10.20
2018-08-23T11:28:33.463Z,10.60
2018-08-23T11:29:39.083Z,10.70
2018-08-23T11:30:44.503Z,10.30
2018-08-23T11:31:50.038Z,11.90
2018-08-23T11:32:55.548Z,11.90
2018-08-23T11:34:01.067Z,11.00
2018-08-23T11:35:06.644Z,10.60
2018-08-23T11:36:12.115Z,9.60
2018-08-23T11:37:17.635Z,8.50
2018-08-23T11:38:23.165Z,8.30
2018-08-23T11:39:28.683Z,9.70
2018-08-23T11:40:34.205Z,9.30
2018-08-23T11:41:39.723Z,9.00
2018-08-23T11:42:45.280Z,8.80
2018-08-23T11:43:50.768Z,8.70
2018-08-23T11:44:56.293Z,9.40
2018-08-23T11:46:01.816Z,9.10
2018-08-23T11:47:07.334Z,8.80
2018-08-23T11:48:12.861Z,10.00
2018-08-23T11:49:18.389Z,9.00
2018-08-23T11:50:23.912Z,8.00
2018-08-23T11:51:29.424Z,8.10
2018-08-23T11:52:34.948Z,7.50
2018-08-23T11:53:40.610Z,7.50
2018-08-23T11:54:45.993Z,6.90
2018-08-23T11:55:51.523Z,6.60
2018-08-23T11:56:57.038Z,6.70
2018-08-23T11:58:02.610Z,7.70
2018-08-23T11:59:08.094Z,8.80
2018-08-23T12:00:13.605Z,8.30
2018-08-23T12:01:19.122Z,7.60
2018-08-23T12:02:24.661Z,7.80
2018-08-23T12:03:30.174Z,7.10
2018-08-23T12:04:35.696Z,7.20
2018-08-23T12:05:41.217Z,6.60
2018-08-23T12:06:46.744Z,7.50
2018-08-23T12:07:52.265Z,7.00
2018-08-23T12:08:57.788Z,6.70
2018-08-23T12:10:03.350Z,6.60
2018-08-23T12:11:08.831Z,6.20
2018-08-23T12:12:14.366Z,6.10
2018-08-23T12:13:19.885Z,7.50
2018-08-23T12:14:25.397Z,7.00
2018-08-23T12:15:30.929Z,6.80
2018-08-23T12:16:36.447Z,6.30
2018-08-23T12:17:41.978Z,6.50
2018-08-23T12:18:47.481Z,6.70
2018-08-23T12:19:53.006Z,6.40
2018-08-23T12:20:58.526Z,6.10
2018-08-23T12:22:04.048Z,6.40
2018-08-23T12:23:09.576Z,6.30
2018-08-23T12:24:15.094Z,7.20
2018-08-23T12:25:20.619Z,6.80
2018-08-23T12:26:26.144Z,6.60
2018-08-23T12:27:31.663Z,6.10
2018-08-23T12:28:37.186Z,6.10
2018-08-23T12:29:42.721Z,6.50
2018-08-23T12:30:48.230Z,6.40
2018-08-23T12:31:53.776Z,6.50
2018-08-23T12:32:59.273Z,6.30
2018-08-23T12:34:04.810Z,5.90
2018-08-23T12:35:10.318Z,6.00
2018-08-23T12:36:15.843Z,5.80
2018-08-23T12:37:21.364Z,5.60
2018-08-23T12:38:26.888Z,5.50
2018-08-23T12:39:32.417Z,5.70
2018-08-23T12:40:37.930Z,5.30
2018-08-23T12:41:43.453Z,5.80
2018-08-23T12:42:48.973Z,5.50
2018-08-23T12:43:54.504Z,5.30
2018-08-23T12:45:00.018Z,4.90
2018-08-23T12:46:05.559Z,5.40
2018-08-23T12:47:11.065Z,5.80
2018-08-23T12:48:16.588Z,5.20
2018-08-23T12:49:22.148Z,4.80
2018-08-23T12:50:27.644Z,5.20
2018-08-23T12:51:33.169Z,5.30
2018-08-23T12:52:38.674Z,5.10
2018-08-23T12:53:44.193Z,4.90
2018-08-23T12:54:49.721Z,5.00
2018-08-23T12:55:55.243Z,4.80
2018-08-23T12:57:00.764Z,5.10
2018-08-23T12:58:06.295Z,5.00
2018-08-23T12:59:11.809Z,4.80
2018-08-23T13:00:17.321Z,4.60
2018-08-23T13:01:22.893Z,4.60
2018-08-23T13:02:28.530Z,4.60
2018-08-23T13:03:33.972Z,4.60
2018-08-23T13:04:39.422Z,4.10
2018-08-23T13:05:44.941Z,4.70
2018-08-23T13:06:50.467Z,5.00
2018-08-23T13:07:55.992Z,5.00
2018-08-23T13:09:01.565Z,4.70
2018-08-23T13:10:07.033Z,5.10
2018-08-23T13:11:12.636Z,5.60
2018-08-23T13:12:18.086Z,5.50
2018-08-23T13:13:23.601Z,5.60
2018-08-23T13:14:29.129Z,5.50
2018-08-23T13:15:34.659Z,5.80
2018-08-23T13:16:40.175Z,5.20
2018-08-23T13:17:45.694Z,4.60
2018-08-23T13:18:51.225Z,4.60
2018-08-23T13:19:56.739Z,4.50
2018-08-23T13:21:02.267Z,4.70
2018-08-23T13:22:07.785Z,3.90
2018-08-23T13:23:13.309Z,3.80
2018-08-23T13:24:18.827Z,4.00
2018-08-23T13:25:24.346Z,4.10
2018-08-23T13:26:29.874Z,3.40
2018-08-23T13:27:35.438Z,3.80
2018-08-23T13:28:40.916Z,3.40
2018-08-23T13:29:46.441Z,3.70
2018-08-23T13:30:51.990Z,3.70
2018-08-23T13:31:57.509Z,3.60
2018-08-23T13:33:03.038Z,3.50
2018-08-23T13:34:08.549Z,3.90
2018-08-23T13:35:14.052Z,3.90
2018-08-23T13:36:19.730Z,4.10
2018-08-23T13:37:25.104Z,3.90
2018-08-23T13:38:30.623Z,3.90
2018-08-23T13:39:36.148Z,3.90
2018-08-23T13:40:41.670Z,4.00
2018-08-23T13:41:47.200Z,4.50
2018-08-23T13:42:52.719Z,3.80
2018-08-23T13:43:58.281Z,4.00
2018-08-23T13:45:03.760Z,4.10
2018-08-23T13:46:09.286Z,3.90
2018-08-23T13:47:14.801Z,4.20
2018-08-23T13:48:20.334Z,3.90
2018-08-23T13:49:25.846Z,4.00
2018-08-23T13:50:31.370Z,4.40
2018-08-23T13:51:36.900Z,4.10
2018-08-23T13:52:42.513Z,4.00
2018-08-23T13:53:47.953Z,4.20
2018-08-23T13:54:53.462Z,4.20
2018-08-23T13:55:58.987Z,3.80
2018-08-23T13:57:04.505Z,4.00
2018-08-23T13:58:10.043Z,4.10
2018-08-23T13:59:15.560Z,4.20
2018-08-23T14:00:21.076Z,4.10
2018-08-23T14:01:27.997Z,4.70
2018-08-23T14:02:32.173Z,4.40
2018-08-23T14:03:37.641Z,4.60
2018-08-23T14:04:43.169Z,4.60
2018-08-23T14:05:48.686Z,4.20
2018-08-23T14:06:54.206Z,4.30
2018-08-23T14:07:59.739Z,4.40
2018-08-23T14:09:05.254Z,4.40